Hoppet Af Brantevik — SKWL — position and weather

sailwx.info

Track history (hours):
 
Tides and Currents Weather Stations Pressure Air Temp Water Temp Dewpoint Dewpoint Depression Visibility Wind Speed Wind Dir Waves Ship Positions

Hoppet Af Brantevik

Last reported at 2016-Jun-28 19:08 UTC. Time now 2016-Jun-29 00:19 UTC.
Position N 56°10' E 015°36'.

Length 17 m; draft 2.2 m.

Type: Ship. MMSI: 265525900.

Date/timePositionNaut miles runAvg speedWind from/ knotsBaromVisibWave heightAir tempDewpointWater temp
2016-Jun-28 19:08N 56°10' E 015°36'0 0.0
2016-Jun-28 12:34N 56°10' E 015°36'2 2.2
2016-Jun-28 11:33N 56°08' E 015°33'25 0.6
2016-Jun-26 20:32N 56°01' E 014°50'18 2.0
2016-Jun-26 11:22N 55°45' E 014°34'4 5.4
2016-Jun-26 10:33N 55°41' E 014°30'4 4.3
2016-Jun-26 09:33N 55°37' E 014°27'4 4.2
2016-Jun-26 08:33N 55°34' E 014°22'3 2.9
2016-Jun-26 07:33N 55°31' E 014°21'0 0.0
2016-Jun-26 06:33N 55°31' E 014°21'0 0.0
2016-Jun-26 05:33N 55°31' E 014°21'0 0.0
2016-Jun-26 04:33N 55°31' E 014°21'0 0.0
2016-Jun-26 03:33N 55°31' E 014°21'0 0.0
2016-Jun-26 02:33N 55°31' E 014°21'0 0.0
2016-Jun-26 01:33N 55°31' E 014°21'0 0.0
2016-Jun-26 00:33N 55°31' E 014°21'0 0.0
2016-Jun-25 23:33N 55°31' E 014°21'0 0.0
2016-Jun-25 22:33N 55°31' E 014°21'0 0.0
2016-Jun-25 21:33N 55°31' E 014°21'0 0.0
2016-Jun-25 20:33N 55°31' E 014°21'0 0.0
2016-Jun-25 19:33N 55°31' E 014°21'0 0.0
2016-Jun-25 18:33N 55°31' E 014°21'0 0.0
2016-Jun-25 17:33N 55°31' E 014°21'0 0.0
2016-Jun-25 16:33N 55°31' E 014°21'0 0.0
2016-Jun-25 15:33N 55°31' E 014°21'0 0.0
2016-Jun-25 14:33N 55°31' E 014°21'0 0.0
2016-Jun-25 13:34N 55°31' E 014°21'0 0.0
2016-Jun-25 12:33N 55°31' E 014°21'0 0.0
2016-Jun-25 11:33N 55°31' E 014°21'0 0.0
2016-Jun-25 10:33N 55°31' E 014°21'0 0.0
2016-Jun-25 09:33N 55°31' E 014°21'0 0.0
2016-Jun-25 08:33N 55°31' E 014°21'  
Track history (hours):
 
Tides and Currents Weather Stations Pressure Air Temp Water Temp Dewpoint Dewpoint Depression Visibility Wind Speed Wind Dir Waves Ship Positions

Hoppet Af Brantevik

Last reported at 2016-Jun-28 19:08 UTC. Time now 2016-Jun-29 00:19 UTC.
Position N 56°10' E 015°36'.

Length 17 m; draft 2.2 m.

Type: Ship. MMSI: 265525900.

Date/timePositionNaut miles runAvg speedWind from/ knotsBaromVisibWave heightAir tempDewpointWater temp
2016-Jun-28 19:08N 56°10' E 015°36'0 0.0
2016-Jun-28 12:34N 56°10' E 015°36'2 2.2
2016-Jun-28 11:33N 56°08' E 015°33'25 0.6
2016-Jun-26 20:32N 56°01' E 014°50'18 2.0
2016-Jun-26 11:22N 55°45' E 014°34'4 5.4
2016-Jun-26 10:33N 55°41' E 014°30'4 4.3
2016-Jun-26 09:33N 55°37' E 014°27'4 4.2
2016-Jun-26 08:33N 55°34' E 014°22'3 2.9
2016-Jun-26 07:33N 55°31' E 014°21'0 0.0
2016-Jun-26 06:33N 55°31' E 014°21'0 0.0
2016-Jun-26 05:33N 55°31' E 014°21'0 0.0
2016-Jun-26 04:33N 55°31' E 014°21'0 0.0
2016-Jun-26 03:33N 55°31' E 014°21'0 0.0
2016-Jun-26 02:33N 55°31' E 014°21'0 0.0
2016-Jun-26 01:33N 55°31' E 014°21'0 0.0
2016-Jun-26 00:33N 55°31' E 014°21'0 0.0
2016-Jun-25 23:33N 55°31' E 014°21'0 0.0
2016-Jun-25 22:33N 55°31' E 014°21'0 0.0
2016-Jun-25 21:33N 55°31' E 014°21'0 0.0
2016-Jun-25 20:33N 55°31' E 014°21'0 0.0
2016-Jun-25 19:33N 55°31' E 014°21'0 0.0
2016-Jun-25 18:33N 55°31' E 014°21'0 0.0
2016-Jun-25 17:33N 55°31' E 014°21'0 0.0
2016-Jun-25 16:33N 55°31' E 014°21'0 0.0
2016-Jun-25 15:33N 55°31' E 014°21'0 0.0
2016-Jun-25 14:33N 55°31' E 014°21'0 0.0
2016-Jun-25 13:34N 55°31' E 014°21'0 0.0
2016-Jun-25 12:33N 55°31' E 014°21'0 0.0
2016-Jun-25 11:33N 55°31' E 014°21'0 0.0
2016-Jun-25 10:33N 55°31' E 014°21'0 0.0
2016-Jun-25 09:33N 55°31' E 014°21'0 0.0
2016-Jun-25 08:33N 55°31' E 014°21'  

Dump ship's entire track history